Edith Kirk — 2DST9 — position and weather

sailwx.info

Track history (hours):
 
Tides and Currents Weather Stations Pressure Air Temp Water Temp Dewpoint Dewpoint Depression Visibility Wind Speed Wind Dir Waves Ship Positions

Edith Kirk

Last reported at 2015-Jul-29 15:18 UTC. Time now 2015-Aug-04 19:59 UTC.
Position N 26°23' W 078°59'.

Length 183 m; draft 7.2 m.

Type: Ship. MMSI: 235081745.

Date/timePositionNaut miles runAvg speedWind from/ knotsBaromVisibWave heightAir tempDewpointWater temp
2015-Jul-29 15:18N 26°23' W 078°59'1 0.8
2015-Jul-29 14:14N 26°23' W 078°60'2 0.8
2015-Jul-29 11:18N 26°24' W 079°02'4 0.4
2015-Jul-29 01:33N 26°28' W 079°01'1 0.7
2015-Jul-29 00:31N 26°27' W 079°00'0 0.5
2015-Jul-28 23:33N 26°27' W 078°60'0 0.5
2015-Jul-28 22:33N 26°27' W 078°59'1 0.7
2015-Jul-28 21:33N 26°26' W 078°59'5 4.3
2015-Jul-28 20:29N 26°27' W 078°54'  
Track history (hours):
 
Tides and Currents Weather Stations Pressure Air Temp Water Temp Dewpoint Dewpoint Depression Visibility Wind Speed Wind Dir Waves Ship Positions

Edith Kirk

Last reported at 2015-Jul-29 15:18 UTC. Time now 2015-Aug-04 19:59 UTC.
Position N 26°23' W 078°59'.

Length 183 m; draft 7.2 m.

Type: Ship. MMSI: 235081745.

Date/timePositionNaut miles runAvg speedWind from/ knotsBaromVisibWave heightAir tempDewpointWater temp
2015-Jul-29 15:18N 26°23' W 078°59'1 0.8
2015-Jul-29 14:14N 26°23' W 078°60'2 0.8
2015-Jul-29 11:18N 26°24' W 079°02'4 0.4
2015-Jul-29 01:33N 26°28' W 079°01'1 0.7
2015-Jul-29 00:31N 26°27' W 079°00'0 0.5
2015-Jul-28 23:33N 26°27' W 078°60'0 0.5
2015-Jul-28 22:33N 26°27' W 078°59'1 0.7
2015-Jul-28 21:33N 26°26' W 078°59'5 4.3
2015-Jul-28 20:29N 26°27' W 078°54'  

Dump ship's entire track history